Lynn Lake Airport
CYYL : now visible

Airfield :











YOU CAN JOIN US ON...

 
LOGIN :

Register | Disclaimer

   EN    FR    IT 

 









Legend :    VFR   Marginal VFR   IFR   Intensive IFR   Very Intensive IFR
Visi :
Ceiling :
>= 8 km
>= 3000ft
5 to 8 km
1000 to 3000 ft
1500m to 5 km
500 to 1000 ft
800 to 1500m
200 to 500 ft
< 800m
< 200 ft
Symbols :   Thunderstorms  Fog  Heavy snow  Heavy precipitations  Wind > 20 kt






- Airport Elevation : 1170 ft
- IATA code : YYL


CYYL - Lynn Lake

CURRENT METAR :
  • 250900Z AUTO 22004KT 9SM OVC013 M04/M04 A2978 RMK SLP112

EXPIRED METARs :
  • 250833Z AUTO 23004KT 9SM OVC011 M04/M04 A2977 RMK SLP109
  • 250815Z AUTO 22005KT 9SM OVC009 M05/M05 A2977 RMK SLP108
  • 250800Z AUTO 20003KT 9SM OVC007 M05/M05 A2977 RMK SLP108
  • 250700Z AUTO 00000KT 9SM OVC007 M05/M05 A2976 RMK SLP106

TAF AMD TAF CYYL
Valid from the 25 at 08:00 until the 25 at 19:00 UTC


250842Z 2508/2519 27005KT P6SM OVC010
TEMPO 2508/2517 5SM -SN BR OVC005
PROB30 2508/2517 4SM -FZDZ BR
FM251700 03006KT P6SM OVC008
TEMPO 2517/2519 5SM -SN BR OVC005 RMK FCST BASED ON AUTO OBS. NXT FCST BY 251300Z



MET'MAP, your aeronautical weather chart ! - Copyright ORBIFLY December 2007 - Disclaimer

ORBIFLY MET'MAP TEAM :

Programming & Development : Alexandra Zaïnal
Concept & original design : Baudouin d'Aumeries
Assistance for programming : Marc-Olivier Méhu
Technical & hardware support : Manuel Goepfert

Contact : metmap@orbifly.com




SOURCES & CREDITS :

   NOAA       Earth
Advisory